sensor_id;sensor_type;location;lat;lon;timestamp;temperature;humidity
40085;DHT22;25786;51.504;7.344;2022-11-18T00:01:17;9.40;86.80
40085;DHT22;25786;51.504;7.344;2022-11-18T00:03:43;9.40;86.80
40085;DHT22;25786;51.504;7.344;2022-11-18T00:06:15;9.40;86.80
40085;DHT22;25786;51.504;7.344;2022-11-18T00:08:41;9.50;86.60
40085;DHT22;25786;51.504;7.344;2022-11-18T00:11:07;9.50;86.70
40085;DHT22;25786;51.504;7.344;2022-11-18T00:13:33;9.60;86.60
40085;DHT22;25786;51.504;7.344;2022-11-18T00:16:18;9.60;86.40
40085;DHT22;25786;51.504;7.344;2022-11-18T00:18:43;9.60;86.50
40085;DHT22;25786;51.504;7.344;2022-11-18T00:21:09;9.60;86.40
40085;DHT22;25786;51.504;7.344;2022-11-18T00:23:35;9.60;86.10
40085;DHT22;25786;51.504;7.344;2022-11-18T00:26:02;9.60;86.10
40085;DHT22;25786;51.504;7.344;2022-11-18T00:28:27;9.60;86.10
40085;DHT22;25786;51.504;7.344;2022-11-18T00:30:58;9.60;85.80
40085;DHT22;25786;51.504;7.344;2022-11-18T00:33:24;9.60;86.00
40085;DHT22;25786;51.504;7.344;2022-11-18T00:35:53;9.70;86.30
40085;DHT22;25786;51.504;7.344;2022-11-18T00:38:18;9.70;85.80
40085;DHT22;25786;51.504;7.344;2022-11-18T00:40:44;9.70;85.70
40085;DHT22;25786;51.504;7.344;2022-11-18T00:43:09;9.80;85.90
40085;DHT22;25786;51.504;7.344;2022-11-18T00:45:35;9.90;85.60
40085;DHT22;25786;51.504;7.344;2022-11-18T00:48:00;9.80;85.30
40085;DHT22;25786;51.504;7.344;2022-11-18T00:50:27;9.80;85.30
40085;DHT22;25786;51.504;7.344;2022-11-18T00:52:52;9.80;85.40
40085;DHT22;25786;51.504;7.344;2022-11-18T00:55:18;9.90;85.60
40085;DHT22;25786;51.504;7.344;2022-11-18T00:57:43;9.90;85.50
40085;DHT22;25786;51.504;7.344;2022-11-18T01:00:08;9.90;85.90
40085;DHT22;25786;51.504;7.344;2022-11-18T01:02:34;9.90;86.00
40085;DHT22;25786;51.504;7.344;2022-11-18T01:05:00;9.90;86.20
40085;DHT22;25786;51.504;7.344;2022-11-18T01:07:25;9.90;85.80
40085;DHT22;25786;51.504;7.344;2022-11-18T01:09:51;9.90;86.00
40085;DHT22;25786;51.504;7.344;2022-11-18T01:12:16;9.80;85.80
40085;DHT22;25786;51.504;7.344;2022-11-18T01:15:01;9.80;86.00
40085;DHT22;25786;51.504;7.344;2022-11-18T01:17:28;9.80;86.10
40085;DHT22;25786;51.504;7.344;2022-11-18T01:19:54;9.70;86.10
40085;DHT22;25786;51.504;7.344;2022-11-18T01:22:19;9.70;86.40
40085;DHT22;25786;51.504;7.344;2022-11-18T01:24:45;9.70;86.60
40085;DHT22;25786;51.504;7.344;2022-11-18T01:27:10;9.80;86.60
40085;DHT22;25786;51.504;7.344;2022-11-18T01:29:36;9.80;86.80
40085;DHT22;25786;51.504;7.344;2022-11-18T01:32:01;9.80;86.80
40085;DHT22;25786;51.504;7.344;2022-11-18T01:34:27;9.80;86.60
40085;DHT22;25786;51.504;7.344;2022-11-18T01:36:53;9.80;86.60
40085;DHT22;25786;51.504;7.344;2022-11-18T01:39:20;9.90;86.70
40085;DHT22;25786;51.504;7.344;2022-11-18T01:41:46;9.90;86.70
40085;DHT22;25786;51.504;7.344;2022-11-18T01:46:55;10.00;86.60
40085;DHT22;25786;51.504;7.344;2022-11-18T01:49:21;10.00;87.00
40085;DHT22;25786;51.504;7.344;2022-11-18T01:51:48;10.00;86.50
40085;DHT22;25786;51.504;7.344;2022-11-18T01:54:19;10.00;86.20
40085;DHT22;25786;51.504;7.344;2022-11-18T01:56:47;10.00;86.10
40085;DHT22;25786;51.504;7.344;2022-11-18T01:59:17;10.00;86.10
40085;DHT22;25786;51.504;7.344;2022-11-18T02:01:43;10.00;86.80
40085;DHT22;25786;51.504;7.344;2022-11-18T02:04:09;10.00;86.70
40085;DHT22;25786;51.504;7.344;2022-11-18T02:06:35;10.00;86.70
40085;DHT22;25786;51.504;7.344;2022-11-18T02:09:01;10.00;86.50
40085;DHT22;25786;51.504;7.344;2022-11-18T02:11:26;10.00;86.40
40085;DHT22;25786;51.504;7.344;2022-11-18T02:14:11;9.90;86.60
40085;DHT22;25786;51.504;7.344;2022-11-18T02:19:20;10.00;87.70
40085;DHT22;25786;51.504;7.344;2022-11-18T02:21:58;10.00;88.00
40085;DHT22;25786;51.504;7.344;2022-11-18T02:29:46;9.80;87.80
40085;DHT22;25786;51.504;7.344;2022-11-18T02:32:17;9.70;87.90
40085;DHT22;25786;51.504;7.344;2022-11-18T02:42:23;9.60;88.60
40085;DHT22;25786;51.504;7.344;2022-11-18T02:44:52;9.60;88.90
40085;DHT22;25786;51.504;7.344;2022-11-18T02:47:19;9.60;88.90
40085;DHT22;25786;51.504;7.344;2022-11-18T02:49:50;9.60;89.00
40085;DHT22;25786;51.504;7.344;2022-11-18T02:52:17;9.60;88.90
40085;DHT22;25786;51.504;7.344;2022-11-18T02:54:45;9.60;89.00
40085;DHT22;25786;51.504;7.344;2022-11-18T02:57:12;9.70;89.20
40085;DHT22;25786;51.504;7.344;2022-11-18T02:59:38;9.70;88.60
40085;DHT22;25786;51.504;7.344;2022-11-18T03:02:03;9.60;88.20
40085;DHT22;25786;51.504;7.344;2022-11-18T03:04:29;9.60;88.20
40085;DHT22;25786;51.504;7.344;2022-11-18T03:07:10;9.40;88.30
40085;DHT22;25786;51.504;7.344;2022-11-18T03:09:37;9.30;88.40
40085;DHT22;25786;51.504;7.344;2022-11-18T03:12:27;9.30;88.30
40085;DHT22;25786;51.504;7.344;2022-11-18T03:17:32;9.10;88.70
40085;DHT22;25786;51.504;7.344;2022-11-18T03:22:36;9.00;88.60
40085;DHT22;25786;51.504;7.344;2022-11-18T03:25:18;8.90;88.40
40085;DHT22;25786;51.504;7.344;2022-11-18T03:28:06;8.90;88.80
40085;DHT22;25786;51.504;7.344;2022-11-18T03:30:35;8.90;88.90
40085;DHT22;25786;51.504;7.344;2022-11-18T03:33:03;8.90;89.20
40085;DHT22;25786;51.504;7.344;2022-11-18T03:35:30;9.00;89.10
40085;DHT22;25786;51.504;7.344;2022-11-18T03:37:59;9.00;89.00
40085;DHT22;25786;51.504;7.344;2022-11-18T03:40:27;9.00;88.80
40085;DHT22;25786;51.504;7.344;2022-11-18T03:42:58;9.10;88.90
40085;DHT22;25786;51.504;7.344;2022-11-18T03:48:11;9.20;89.10
40085;DHT22;25786;51.504;7.344;2022-11-18T03:50:48;9.20;88.70
40085;DHT22;25786;51.504;7.344;2022-11-18T03:53:14;9.20;88.50
40085;DHT22;25786;51.504;7.344;2022-11-18T03:55:42;9.20;88.60
40085;DHT22;25786;51.504;7.344;2022-11-18T03:58:11;9.20;88.50
40085;DHT22;25786;51.504;7.344;2022-11-18T04:00:42;9.20;88.70
40085;DHT22;25786;51.504;7.344;2022-11-18T04:03:09;9.20;88.60
40085;DHT22;25786;51.504;7.344;2022-11-18T04:05:36;9.20;88.50
40085;DHT22;25786;51.504;7.344;2022-11-18T04:08:03;9.30;88.60
40085;DHT22;25786;51.504;7.344;2022-11-18T04:10:36;9.30;88.60
40085;DHT22;25786;51.504;7.344;2022-11-18T04:13:07;9.30;88.60
40085;DHT22;25786;51.504;7.344;2022-11-18T04:15:37;9.40;88.70
40085;DHT22;25786;51.504;7.344;2022-11-18T04:18:03;9.40;88.80
40085;DHT22;25786;51.504;7.344;2022-11-18T04:20:28;9.50;88.50
40085;DHT22;25786;51.504;7.344;2022-11-18T04:22:55;9.50;88.50
40085;DHT22;25786;51.504;7.344;2022-11-18T04:25:21;9.50;88.60
40085;DHT22;25786;51.504;7.344;2022-11-18T04:27:49;9.50;89.00
40085;DHT22;25786;51.504;7.344;2022-11-18T04:30:14;9.50;89.20
40085;DHT22;25786;51.504;7.344;2022-11-18T04:32:40;9.50;88.80
40085;DHT22;25786;51.504;7.344;2022-11-18T04:35:05;9.60;88.80
40085;DHT22;25786;51.504;7.344;2022-11-18T04:37:31;9.60;88.50
40085;DHT22;25786;51.504;7.344;2022-11-18T04:39:56;9.60;88.80
40085;DHT22;25786;51.504;7.344;2022-11-18T04:42:21;9.60;88.50
40085;DHT22;25786;51.504;7.344;2022-11-18T04:44:47;9.60;88.60
40085;DHT22;25786;51.504;7.344;2022-11-18T04:47:12;9.60;88.60
40085;DHT22;25786;51.504;7.344;2022-11-18T04:49:38;9.60;88.60
40085;DHT22;25786;51.504;7.344;2022-11-18T04:52:03;9.60;88.60
40085;DHT22;25786;51.504;7.344;2022-11-18T04:54:29;9.70;88.90
40085;DHT22;25786;51.504;7.344;2022-11-18T04:56:55;9.70;88.80
40085;DHT22;25786;51.504;7.344;2022-11-18T04:59:23;9.60;88.70
40085;DHT22;25786;51.504;7.344;2022-11-18T05:01:50;9.60;88.70
40085;DHT22;25786;51.504;7.344;2022-11-18T05:04:16;9.70;88.90
40085;DHT22;25786;51.504;7.344;2022-11-18T05:06:42;9.70;88.80
40085;DHT22;25786;51.504;7.344;2022-11-18T05:09:08;9.70;88.70
40085;DHT22;25786;51.504;7.344;2022-11-18T05:11:34;9.70;88.60
40085;DHT22;25786;51.504;7.344;2022-11-18T05:14:18;9.80;88.50
40085;DHT22;25786;51.504;7.344;2022-11-18T05:16:43;9.80;88.60
40085;DHT22;25786;51.504;7.344;2022-11-18T05:19:09;9.80;88.70
40085;DHT22;25786;51.504;7.344;2022-11-18T05:21:35;9.80;88.60
40085;DHT22;25786;51.504;7.344;2022-11-18T05:24:00;9.80;88.40
40085;DHT22;25786;51.504;7.344;2022-11-18T05:26:26;9.80;88.90
40085;DHT22;25786;51.504;7.344;2022-11-18T05:28:52;9.80;88.90
40085;DHT22;25786;51.504;7.344;2022-11-18T05:31:17;9.70;88.70
40085;DHT22;25786;51.504;7.344;2022-11-18T05:33:43;9.70;88.80
40085;DHT22;25786;51.504;7.344;2022-11-18T05:36:10;9.70;88.90
40085;DHT22;25786;51.504;7.344;2022-11-18T05:38:36;9.80;88.80
40085;DHT22;25786;51.504;7.344;2022-11-18T05:41:01;9.80;88.80
40085;DHT22;25786;51.504;7.344;2022-11-18T05:43:27;9.80;88.80
40085;DHT22;25786;51.504;7.344;2022-11-18T05:45:53;9.80;88.80
40085;DHT22;25786;51.504;7.344;2022-11-18T05:48:18;9.80;88.80
40085;DHT22;25786;51.504;7.344;2022-11-18T05:50:48;9.90;88.80
40085;DHT22;25786;51.504;7.344;2022-11-18T05:53:14;9.80;88.70
40085;DHT22;25786;51.504;7.344;2022-11-18T05:55:44;9.80;88.80
40085;DHT22;25786;51.504;7.344;2022-11-18T05:58:12;9.80;88.80
40085;DHT22;25786;51.504;7.344;2022-11-18T06:00:37;9.80;88.90
40085;DHT22;25786;51.504;7.344;2022-11-18T06:03:03;9.90;88.70
40085;DHT22;25786;51.504;7.344;2022-11-18T06:05:34;9.90;88.90
40085;DHT22;25786;51.504;7.344;2022-11-18T06:07:59;9.90;88.80
40085;DHT22;25786;51.504;7.344;2022-11-18T06:10:26;9.90;88.90
40085;DHT22;25786;51.504;7.344;2022-11-18T06:12:55;9.90;88.80
40085;DHT22;25786;51.504;7.344;2022-11-18T06:15:24;10.00;88.60
40085;DHT22;25786;51.504;7.344;2022-11-18T06:17:58;10.00;88.60
40085;DHT22;25786;51.504;7.344;2022-11-18T06:20:25;9.90;88.30
40085;DHT22;25786;51.504;7.344;2022-11-18T06:22:52;9.80;88.00
40085;DHT22;25786;51.504;7.344;2022-11-18T06:25:18;9.80;88.60
40085;DHT22;25786;51.504;7.344;2022-11-18T06:27:44;9.80;88.60
40085;DHT22;25786;51.504;7.344;2022-11-18T06:30:10;9.80;88.50
40085;DHT22;25786;51.504;7.344;2022-11-18T06:32:36;9.80;88.80
40085;DHT22;25786;51.504;7.344;2022-11-18T06:35:01;9.80;88.80
40085;DHT22;25786;51.504;7.344;2022-11-18T06:37:27;9.80;88.80
40085;DHT22;25786;51.504;7.344;2022-11-18T06:39:52;9.80;88.80
40085;DHT22;25786;51.504;7.344;2022-11-18T06:42:17;9.80;88.50
40085;DHT22;25786;51.504;7.344;2022-11-18T06:45:02;9.80;88.70
40085;DHT22;25786;51.504;7.344;2022-11-18T06:47:28;9.80;88.90
40085;DHT22;25786;51.504;7.344;2022-11-18T06:49:53;9.80;88.80
40085;DHT22;25786;51.504;7.344;2022-11-18T06:52:20;9.80;88.70
40085;DHT22;25786;51.504;7.344;2022-11-18T06:54:45;9.90;88.60
40085;DHT22;25786;51.504;7.344;2022-11-18T06:57:11;9.90;88.50
40085;DHT22;25786;51.504;7.344;2022-11-18T06:59:36;10.00;88.70
40085;DHT22;25786;51.504;7.344;2022-11-18T07:02:02;10.00;88.60
40085;DHT22;25786;51.504;7.344;2022-11-18T07:04:27;10.00;88.70
40085;DHT22;25786;51.504;7.344;2022-11-18T07:06:52;10.00;88.60
40085;DHT22;25786;51.504;7.344;2022-11-18T07:09:18;10.00;88.50
40085;DHT22;25786;51.504;7.344;2022-11-18T07:11:43;10.00;88.60
40085;DHT22;25786;51.504;7.344;2022-11-18T07:14:09;9.90;88.60
40085;DHT22;25786;51.504;7.344;2022-11-18T07:16:35;9.90;88.70
40085;DHT22;25786;51.504;7.344;2022-11-18T07:19:01;9.90;88.80
40085;DHT22;25786;51.504;7.344;2022-11-18T07:21:27;9.90;88.80
40085;DHT22;25786;51.504;7.344;2022-11-18T07:23:53;9.90;88.80
40085;DHT22;25786;51.504;7.344;2022-11-18T07:26:19;10.00;88.70
40085;DHT22;25786;51.504;7.344;2022-11-18T07:28:45;10.00;88.90
40085;DHT22;25786;51.504;7.344;2022-11-18T07:31:11;10.00;89.00
40085;DHT22;25786;51.504;7.344;2022-11-18T07:33:38;10.00;89.00
40085;DHT22;25786;51.504;7.344;2022-11-18T07:38:32;10.00;88.70
40085;DHT22;25786;51.504;7.344;2022-11-18T07:43:42;10.10;88.70
40085;DHT22;25786;51.504;7.344;2022-11-18T07:46:15;10.10;88.60
40085;DHT22;25786;51.504;7.344;2022-11-18T07:48:42;10.10;88.60
40085;DHT22;25786;51.504;7.344;2022-11-18T07:51:07;10.10;88.60
40085;DHT22;25786;51.504;7.344;2022-11-18T07:53:33;10.10;88.80
40085;DHT22;25786;51.504;7.344;2022-11-18T07:55:59;10.20;88.50
40085;DHT22;25786;51.504;7.344;2022-11-18T07:58:25;10.10;88.40
40085;DHT22;25786;51.504;7.344;2022-11-18T08:00:50;10.10;88.40
40085;DHT22;25786;51.504;7.344;2022-11-18T08:03:15;10.10;88.30
40085;DHT22;25786;51.504;7.344;2022-11-18T08:05:41;10.10;88.60
40085;DHT22;25786;51.504;7.344;2022-11-18T08:08:06;10.20;88.50
40085;DHT22;25786;51.504;7.344;2022-11-18T08:10:32;10.20;88.30
40085;DHT22;25786;51.504;7.344;2022-11-18T08:12:57;10.30;88.30
40085;DHT22;25786;51.504;7.344;2022-11-18T08:15:23;10.30;88.50
40085;DHT22;25786;51.504;7.344;2022-11-18T08:17:48;10.30;88.40
40085;DHT22;25786;51.504;7.344;2022-11-18T08:20:14;10.30;88.30
40085;DHT22;25786;51.504;7.344;2022-11-18T08:22:39;10.50;88.40
40085;DHT22;25786;51.504;7.344;2022-11-18T08:25:05;10.50;88.20
40085;DHT22;25786;51.504;7.344;2022-11-18T08:27:30;10.50;88.10
40085;DHT22;25786;51.504;7.344;2022-11-18T08:29:56;10.50;88.30
40085;DHT22;25786;51.504;7.344;2022-11-18T08:32:21;10.60;88.20
40085;DHT22;25786;51.504;7.344;2022-11-18T08:34:47;10.70;87.80
40085;DHT22;25786;51.504;7.344;2022-11-18T08:37:12;10.80;88.00
40085;DHT22;25786;51.504;7.344;2022-11-18T08:39:38;10.80;86.80
40085;DHT22;25786;51.504;7.344;2022-11-18T08:42:03;10.70;86.80
40085;DHT22;25786;51.504;7.344;2022-11-18T08:44:28;10.70;86.40
40085;DHT22;25786;51.504;7.344;2022-11-18T08:46:57;10.60;86.50
40085;DHT22;25786;51.504;7.344;2022-11-18T08:49:22;10.60;86.80
40085;DHT22;25786;51.504;7.344;2022-11-18T08:51:50;10.60;86.80
40085;DHT22;25786;51.504;7.344;2022-11-18T08:54:15;10.70;86.40
40085;DHT22;25786;51.504;7.344;2022-11-18T08:56:40;10.70;86.40
40085;DHT22;25786;51.504;7.344;2022-11-18T08:59:06;10.80;86.70
40085;DHT22;25786;51.504;7.344;2022-11-18T09:01:32;10.80;86.30
40085;DHT22;25786;51.504;7.344;2022-11-18T09:03:59;10.90;86.00
40085;DHT22;25786;51.504;7.344;2022-11-18T09:06:25;10.80;85.80
40085;DHT22;25786;51.504;7.344;2022-11-18T09:08:51;10.80;86.30
40085;DHT22;25786;51.504;7.344;2022-11-18T09:11:18;10.80;85.80
40085;DHT22;25786;51.504;7.344;2022-11-18T09:13:44;10.80;85.90
40085;DHT22;25786;51.504;7.344;2022-11-18T09:16:09;10.90;85.20
40085;DHT22;25786;51.504;7.344;2022-11-18T09:18:35;10.80;85.70
40085;DHT22;25786;51.504;7.344;2022-11-18T09:21:01;10.90;85.40
40085;DHT22;25786;51.504;7.344;2022-11-18T09:23:27;10.80;85.60
40085;DHT22;25786;51.504;7.344;2022-11-18T09:25:56;10.90;85.60
40085;DHT22;25786;51.504;7.344;2022-11-18T09:28:22;10.90;85.40
40085;DHT22;25786;51.504;7.344;2022-11-18T09:30:47;10.80;85.70
40085;DHT22;25786;51.504;7.344;2022-11-18T09:33:12;10.90;85.90
40085;DHT22;25786;51.504;7.344;2022-11-18T09:35:43;10.90;86.10
40085;DHT22;25786;51.504;7.344;2022-11-18T09:38:08;10.90;86.00
40085;DHT22;25786;51.504;7.344;2022-11-18T09:40:47;10.90;86.00
40085;DHT22;25786;51.504;7.344;2022-11-18T09:43:24;10.90;85.90
40085;DHT22;25786;51.504;7.344;2022-11-18T09:45:58;10.90;85.90
40085;DHT22;25786;51.504;7.344;2022-11-18T09:48:27;10.90;85.60
40085;DHT22;25786;51.504;7.344;2022-11-18T09:51:11;11.00;85.70
40085;DHT22;25786;51.504;7.344;2022-11-18T09:53:38;10.90;86.00
40085;DHT22;25786;51.504;7.344;2022-11-18T09:56:08;11.00;85.90
40085;DHT22;25786;51.504;7.344;2022-11-18T09:58:36;11.00;85.90
40085;DHT22;25786;51.504;7.344;2022-11-18T10:01:02;11.00;85.90
40085;DHT22;25786;51.504;7.344;2022-11-18T10:03:29;11.00;85.80
40085;DHT22;25786;51.504;7.344;2022-11-18T10:11:13;11.00;85.70
40085;DHT22;25786;51.504;7.344;2022-11-18T10:16:29;11.20;84.00
40085;DHT22;25786;51.504;7.344;2022-11-18T10:19:05;11.20;84.20
40085;DHT22;25786;51.504;7.344;2022-11-18T10:21:37;11.10;83.90
40085;DHT22;25786;51.504;7.344;2022-11-18T10:26:34;11.10;83.90
40085;DHT22;25786;51.504;7.344;2022-11-18T10:29:00;11.20;83.90
40085;DHT22;25786;51.504;7.344;2022-11-18T10:31:26;11.20;83.80
40085;DHT22;25786;51.504;7.344;2022-11-18T10:34:00;11.20;83.90
40085;DHT22;25786;51.504;7.344;2022-11-18T10:36:27;11.30;83.80
40085;DHT22;25786;51.504;7.344;2022-11-18T10:41:34;11.20;83.60
40085;DHT22;25786;51.504;7.344;2022-11-18T10:44:02;11.20;83.30
40085;DHT22;25786;51.504;7.344;2022-11-18T10:46:31;11.30;83.80
40085;DHT22;25786;51.504;7.344;2022-11-18T10:49:18;11.40;83.10
40085;DHT22;25786;51.504;7.344;2022-11-18T10:51:44;11.30;82.80
40085;DHT22;25786;51.504;7.344;2022-11-18T10:54:20;11.40;82.30
40085;DHT22;25786;51.504;7.344;2022-11-18T10:56:50;11.30;82.60
40085;DHT22;25786;51.504;7.344;2022-11-18T11:02:02;11.40;82.60
40085;DHT22;25786;51.504;7.344;2022-11-18T11:04:31;11.50;82.60
40085;DHT22;25786;51.504;7.344;2022-11-18T11:06:58;11.60;81.90
40085;DHT22;25786;51.504;7.344;2022-11-18T11:09:26;11.70;81.80
40085;DHT22;25786;51.504;7.344;2022-11-18T11:11:59;11.80;82.00
40085;DHT22;25786;51.504;7.344;2022-11-18T11:16:52;11.80;81.40
40085;DHT22;25786;51.504;7.344;2022-11-18T11:19:22;11.80;81.60
40085;DHT22;25786;51.504;7.344;2022-11-18T11:21:48;11.70;81.50
40085;DHT22;25786;51.504;7.344;2022-11-18T11:24:13;11.60;82.00
40085;DHT22;25786;51.504;7.344;2022-11-18T11:26:53;11.60;81.70
40085;DHT22;25786;51.504;7.344;2022-11-18T11:32:19;11.60;81.90
40085;DHT22;25786;51.504;7.344;2022-11-18T11:37:52;11.60;81.00
40085;DHT22;25786;51.504;7.344;2022-11-18T11:45:45;11.80;80.70
40085;DHT22;25786;51.504;7.344;2022-11-18T11:51:15;12.10;79.80
40085;DHT22;25786;51.504;7.344;2022-11-18T11:56:32;12.10;80.20
40085;DHT22;25786;51.504;7.344;2022-11-18T12:03:56;12.30;79.20
40085;DHT22;25786;51.504;7.344;2022-11-18T12:06:24;12.40;78.90
40085;DHT22;25786;51.504;7.344;2022-11-18T12:09:02;12.40;78.70
40085;DHT22;25786;51.504;7.344;2022-11-18T12:16:46;12.60;78.00
40085;DHT22;25786;51.504;7.344;2022-11-18T12:19:15;12.60;78.10
40085;DHT22;25786;51.504;7.344;2022-11-18T12:26:42;12.70;76.50
40085;DHT22;25786;51.504;7.344;2022-11-18T12:31:42;12.50;76.20
40085;DHT22;25786;51.504;7.344;2022-11-18T12:34:18;12.50;76.40
40085;DHT22;25786;51.504;7.344;2022-11-18T12:36:44;12.30;76.40
40085;DHT22;25786;51.504;7.344;2022-11-18T12:44:41;12.30;76.90
40085;DHT22;25786;51.504;7.344;2022-11-18T12:47:07;12.30;76.10
40085;DHT22;25786;51.504;7.344;2022-11-18T12:52:06;12.60;75.20
40085;DHT22;25786;51.504;7.344;2022-11-18T12:54:47;12.70;74.90
40085;DHT22;25786;51.504;7.344;2022-11-18T12:59:41;13.10;73.60
40085;DHT22;25786;51.504;7.344;2022-11-18T13:04:35;12.90;73.90
40085;DHT22;25786;51.504;7.344;2022-11-18T13:07:01;12.70;74.40
40085;DHT22;25786;51.504;7.344;2022-11-18T13:09:28;12.60;73.60
40085;DHT22;25786;51.504;7.344;2022-11-18T13:11:59;12.60;74.30
40085;DHT22;25786;51.504;7.344;2022-11-18T13:17:22;12.40;74.30
40085;DHT22;25786;51.504;7.344;2022-11-18T13:20:52;12.30;74.30
40085;DHT22;25786;51.504;7.344;2022-11-18T13:22:56;12.30;74.30
40085;DHT22;25786;51.504;7.344;2022-11-18T13:25:40;12.30;74.20
40085;DHT22;25786;51.504;7.344;2022-11-18T13:30:36;12.30;74.30
40085;DHT22;25786;51.504;7.344;2022-11-18T13:33:09;12.50;73.90
40085;DHT22;25786;51.504;7.344;2022-11-18T13:35:35;12.40;74.10
40085;DHT22;25786;51.504;7.344;2022-11-18T13:38:04;12.30;74.80
40085;DHT22;25786;51.504;7.344;2022-11-18T13:40:43;12.10;74.70
40085;DHT22;25786;51.504;7.344;2022-11-18T13:43:27;12.10;75.30
40085;DHT22;25786;51.504;7.344;2022-11-18T13:45:53;11.90;75.00
40085;DHT22;25786;51.504;7.344;2022-11-18T13:48:18;11.90;75.90
40085;DHT22;25786;51.504;7.344;2022-11-18T13:50:48;11.90;76.10
40085;DHT22;25786;51.504;7.344;2022-11-18T13:53:27;11.90;75.60
40085;DHT22;25786;51.504;7.344;2022-11-18T13:56:02;11.90;76.00
40085;DHT22;25786;51.504;7.344;2022-11-18T13:58:38;12.00;75.10
40085;DHT22;25786;51.504;7.344;2022-11-18T14:01:05;12.10;75.10
40085;DHT22;25786;51.504;7.344;2022-11-18T14:03:32;12.00;74.90
40085;DHT22;25786;51.504;7.344;2022-11-18T14:05:59;12.00;75.00
40085;DHT22;25786;51.504;7.344;2022-11-18T14:10:53;11.90;75.50
40085;DHT22;25786;51.504;7.344;2022-11-18T14:13:29;11.80;76.20
40085;DHT22;25786;51.504;7.344;2022-11-18T14:15:59;11.80;75.90
40085;DHT22;25786;51.504;7.344;2022-11-18T14:20:54;11.70;76.90
40085;DHT22;25786;51.504;7.344;2022-11-18T14:23:30;11.70;77.00
40085;DHT22;25786;51.504;7.344;2022-11-18T14:25:57;11.70;77.00
40085;DHT22;25786;51.504;7.344;2022-11-18T14:33:23;11.60;78.20
40085;DHT22;25786;51.504;7.344;2022-11-18T14:35:50;11.50;78.00
40085;DHT22;25786;51.504;7.344;2022-11-18T14:38:24;11.50;78.20
40085;DHT22;25786;51.504;7.344;2022-11-18T14:40:57;11.50;78.60
40085;DHT22;25786;51.504;7.344;2022-11-18T14:43:23;11.50;78.50
40085;DHT22;25786;51.504;7.344;2022-11-18T14:45:49;11.50;78.40
40085;DHT22;25786;51.504;7.344;2022-11-18T14:48:16;11.50;78.60
40085;DHT22;25786;51.504;7.344;2022-11-18T14:50:43;11.50;78.60
40085;DHT22;25786;51.504;7.344;2022-11-18T14:53:10;11.50;78.50
40085;DHT22;25786;51.504;7.344;2022-11-18T14:55:36;11.50;78.90
40085;DHT22;25786;51.504;7.344;2022-11-18T14:58:02;11.50;77.70
40085;DHT22;25786;51.504;7.344;2022-11-18T15:00:27;11.50;77.50
40085;DHT22;25786;51.504;7.344;2022-11-18T15:02:53;11.40;78.00
40085;DHT22;25786;51.504;7.344;2022-11-18T15:05:18;11.40;78.80
40085;DHT22;25786;51.504;7.344;2022-11-18T15:07:44;11.30;79.30
40085;DHT22;25786;51.504;7.344;2022-11-18T15:10:11;11.30;79.90
40085;DHT22;25786;51.504;7.344;2022-11-18T15:12:37;11.20;80.00
40085;DHT22;25786;51.504;7.344;2022-11-18T15:15:03;11.10;80.50
40085;DHT22;25786;51.504;7.344;2022-11-18T15:17:28;11.10;80.50
40085;DHT22;25786;51.504;7.344;2022-11-18T15:19:54;11.10;80.40
40085;DHT22;25786;51.504;7.344;2022-11-18T15:22:20;11.00;80.90
40085;DHT22;25786;51.504;7.344;2022-11-18T15:24:45;10.90;81.10
40085;DHT22;25786;51.504;7.344;2022-11-18T15:27:11;10.80;81.30
40085;DHT22;25786;51.504;7.344;2022-11-18T15:29:36;10.70;81.60
40085;DHT22;25786;51.504;7.344;2022-11-18T15:32:01;10.70;82.00
40085;DHT22;25786;51.504;7.344;2022-11-18T15:34:29;10.70;81.80
40085;DHT22;25786;51.504;7.344;2022-11-18T15:36:55;10.70;81.70
40085;DHT22;25786;51.504;7.344;2022-11-18T15:39:20;10.70;81.90
40085;DHT22;25786;51.504;7.344;2022-11-18T15:41:45;10.60;81.80
40085;DHT22;25786;51.504;7.344;2022-11-18T15:44:11;10.60;81.60
40085;DHT22;25786;51.504;7.344;2022-11-18T15:46:36;10.60;82.30
40085;DHT22;25786;51.504;7.344;2022-11-18T15:49:02;10.60;82.60
40085;DHT22;25786;51.504;7.344;2022-11-18T15:51:28;10.50;82.80
40085;DHT22;25786;51.504;7.344;2022-11-18T15:53:54;10.50;82.60
40085;DHT22;25786;51.504;7.344;2022-11-18T15:56:27;10.40;82.70
40085;DHT22;25786;51.504;7.344;2022-11-18T15:58:57;10.50;82.70
40085;DHT22;25786;51.504;7.344;2022-11-18T16:01:23;10.50;82.80
40085;DHT22;25786;51.504;7.344;2022-11-18T16:03:49;10.50;83.00
40085;DHT22;25786;51.504;7.344;2022-11-18T16:06:14;10.50;82.40
40085;DHT22;25786;51.504;7.344;2022-11-18T16:08:40;10.50;82.90
40085;DHT22;25786;51.504;7.344;2022-11-18T16:11:05;10.50;83.10
40085;DHT22;25786;51.504;7.344;2022-11-18T16:13:50;10.50;83.30
40085;DHT22;25786;51.504;7.344;2022-11-18T16:16:19;10.50;83.40
40085;DHT22;25786;51.504;7.344;2022-11-18T16:18:44;10.50;83.40
40085;DHT22;25786;51.504;7.344;2022-11-18T16:21:10;10.60;83.10
40085;DHT22;25786;51.504;7.344;2022-11-18T16:23:35;10.60;83.60
40085;DHT22;25786;51.504;7.344;2022-11-18T16:26:01;10.60;82.60
40085;DHT22;25786;51.504;7.344;2022-11-18T16:28:26;10.60;82.40
40085;DHT22;25786;51.504;7.344;2022-11-18T16:30:52;10.60;82.00
40085;DHT22;25786;51.504;7.344;2022-11-18T16:33:36;10.50;80.90
40085;DHT22;25786;51.504;7.344;2022-11-18T16:36:01;10.50;80.40
40085;DHT22;25786;51.504;7.344;2022-11-18T16:38:27;10.40;80.00
40085;DHT22;25786;51.504;7.344;2022-11-18T16:40:56;10.30;79.10
40085;DHT22;25786;51.504;7.344;2022-11-18T16:43:22;10.30;77.20
40085;DHT22;25786;51.504;7.344;2022-11-18T16:45:51;10.30;77.60
40085;DHT22;25786;51.504;7.344;2022-11-18T16:48:17;10.30;77.90
40085;DHT22;25786;51.504;7.344;2022-11-18T16:50:43;10.30;78.50
40085;DHT22;25786;51.504;7.344;2022-11-18T16:53:08;10.20;78.50
40085;DHT22;25786;51.504;7.344;2022-11-18T16:55:33;10.10;79.40
40085;DHT22;25786;51.504;7.344;2022-11-18T16:57:59;10.20;78.80
40085;DHT22;25786;51.504;7.344;2022-11-18T17:00:24;10.20;79.60
40085;DHT22;25786;51.504;7.344;2022-11-18T17:02:50;10.20;78.80
40085;DHT22;25786;51.504;7.344;2022-11-18T17:05:15;10.10;78.50
40085;DHT22;25786;51.504;7.344;2022-11-18T17:07:41;10.10;78.30
40085;DHT22;25786;51.504;7.344;2022-11-18T17:10:06;10.10;77.90
40085;DHT22;25786;51.504;7.344;2022-11-18T17:12:46;10.00;78.40
40085;DHT22;25786;51.504;7.344;2022-11-18T17:15:12;10.00;78.40
40085;DHT22;25786;51.504;7.344;2022-11-18T17:17:38;10.10;78.20
40085;DHT22;25786;51.504;7.344;2022-11-18T17:20:04;10.00;78.80
40085;DHT22;25786;51.504;7.344;2022-11-18T17:22:29;10.00;79.40
40085;DHT22;25786;51.504;7.344;2022-11-18T17:24:55;10.00;80.60
40085;DHT22;25786;51.504;7.344;2022-11-18T17:27:20;10.10;80.90
40085;DHT22;25786;51.504;7.344;2022-11-18T17:29:46;10.00;81.70
40085;DHT22;25786;51.504;7.344;2022-11-18T17:32:12;9.80;82.40
40085;DHT22;25786;51.504;7.344;2022-11-18T17:34:37;9.70;83.10